createdAt,value
2022-12-05T00:01:56.288Z,22.67
2022-12-05T00:04:24.459Z,20.33
2022-12-05T00:06:52.554Z,23.75
2022-12-05T00:09:21.001Z,23.73
2022-12-05T00:11:49.012Z,23.70
2022-12-05T00:14:17.367Z,22.35
2022-12-05T00:16:46.067Z,19.20
2022-12-05T00:19:16.561Z,23.95
2022-12-05T00:21:45.405Z,21.63
2022-12-05T00:24:16.064Z,23.35
2022-12-05T00:26:44.782Z,21.40
2022-12-05T00:29:13.117Z,18.52
2022-12-05T00:31:41.674Z,21.55
2022-12-05T00:34:10.023Z,23.83
2022-12-05T00:36:39.578Z,23.17
2022-12-05T00:39:09.163Z,22.38
2022-12-05T00:41:37.947Z,19.95
2022-12-05T00:44:06.489Z,21.42
2022-12-05T00:46:36.207Z,20.48
2022-12-05T00:49:06.417Z,21.92
2022-12-05T00:51:37.156Z,22.35
2022-12-05T00:54:09.371Z,18.77
2022-12-05T00:56:37.890Z,20.83
2022-12-05T00:59:07.087Z,23.45
2022-12-05T01:01:37.431Z,22.38
2022-12-05T01:04:08.349Z,22.27
2022-12-05T01:06:36.694Z,21.30
2022-12-05T01:09:07.292Z,22.40
2022-12-05T01:11:40.919Z,23.02
2022-12-05T01:14:10.126Z,21.83
2022-12-05T01:16:41.396Z,20.48
2022-12-05T01:19:13.113Z,22.00
2022-12-05T01:21:41.944Z,20.10
2022-12-05T01:24:13.341Z,23.88
2022-12-05T01:26:41.897Z,22.58
2022-12-05T01:29:10.881Z,19.83
2022-12-05T01:31:39.942Z,25.05
2022-12-05T01:34:12.293Z,24.83
2022-12-05T01:36:41.060Z,24.75
2022-12-05T01:39:10.814Z,21.05
2022-12-05T01:41:43.567Z,19.67
2022-12-05T01:44:45.970Z,21.13
2022-12-05T01:47:17.662Z,22.65
2022-12-05T01:49:46.536Z,22.38
2022-12-05T01:52:19.612Z,21.27
2022-12-05T01:54:51.703Z,24.50
2022-12-05T01:57:21.438Z,23.67
2022-12-05T01:59:55.282Z,22.02
2022-12-05T02:02:23.921Z,22.60
2022-12-05T02:05:01.439Z,20.20
2022-12-05T02:07:30.139Z,19.75
2022-12-05T02:09:58.503Z,24.63
2022-12-05T02:12:28.280Z,19.50
2022-12-05T02:15:19.625Z,23.90
2022-12-05T02:18:00.918Z,22.05
2022-12-05T02:20:45.900Z,21.10
2022-12-05T02:23:44.084Z,22.60
2022-12-05T02:26:38.923Z,18.88
2022-12-05T02:29:31.139Z,23.73
2022-12-05T02:32:07.776Z,24.73
2022-12-05T02:34:44.438Z,17.50
2022-12-05T02:37:18.200Z,23.92
2022-12-05T02:39:53.252Z,22.52
2022-12-05T02:42:27.976Z,24.08
2022-12-05T02:45:00.862Z,24.60
2022-12-05T02:47:35.853Z,20.40
2022-12-05T02:50:04.873Z,19.83
2022-12-05T02:52:35.019Z,19.45
2022-12-05T02:55:04.862Z,21.17
2022-12-05T02:57:35.378Z,20.67
2022-12-05T03:00:03.529Z,20.55
2022-12-05T03:02:34.895Z,26.33
2022-12-05T03:05:14.333Z,19.05
2022-12-05T03:07:46.369Z,20.13
2022-12-05T03:10:16.926Z,25.15
2022-12-05T03:12:51.964Z,26.08
2022-12-05T03:15:24.649Z,18.83
2022-12-05T03:18:04.537Z,26.38
2022-12-05T03:20:35.665Z,24.10
2022-12-05T03:23:07.453Z,19.70
2022-12-05T03:25:41.654Z,19.63
2022-12-05T03:28:19.170Z,29.77
2022-12-05T03:30:50.640Z,23.70
2022-12-05T03:33:24.724Z,20.55
2022-12-05T03:36:02.306Z,27.90
2022-12-05T03:38:35.842Z,19.42
2022-12-05T03:41:10.643Z,18.05
2022-12-05T03:43:48.417Z,24.75
2022-12-05T03:46:23.192Z,27.73
2022-12-05T03:48:57.318Z,21.02
2022-12-05T03:51:32.495Z,20.48
2022-12-05T03:54:06.716Z,23.58
2022-12-05T03:56:39.048Z,22.95
2022-12-05T03:59:15.043Z,24.85
2022-12-05T04:01:44.776Z,24.05
2022-12-05T04:04:19.995Z,25.15
2022-12-05T04:06:51.761Z,24.15
2022-12-05T04:09:25.713Z,30.05
2022-12-05T04:11:58.754Z,23.00
2022-12-05T04:14:34.035Z,23.80
2022-12-05T04:17:05.233Z,18.35
2022-12-05T04:19:58.983Z,24.55
2022-12-05T04:22:27.707Z,24.95
2022-12-05T04:25:16.397Z,24.42
2022-12-05T04:27:52.315Z,20.42
2022-12-05T04:30:23.095Z,22.77
2022-12-05T04:32:57.212Z,24.65
2022-12-05T04:35:31.439Z,21.85
2022-12-05T04:38:04.653Z,22.00
2022-12-05T04:40:38.388Z,22.65
2022-12-05T04:43:08.186Z,19.92
2022-12-05T04:45:39.972Z,22.92
2022-12-05T04:48:13.075Z,23.42
2022-12-05T04:50:44.944Z,21.83
2022-12-05T04:53:15.380Z,22.55
2022-12-05T04:55:47.592Z,20.25
2022-12-05T04:58:18.337Z,24.27
2022-12-05T05:00:51.650Z,22.85
2022-12-05T05:03:26.202Z,23.60
2022-12-05T05:05:57.416Z,22.05
2022-12-05T05:08:27.378Z,25.25
2022-12-05T05:11:17.568Z,21.95
2022-12-05T05:13:45.757Z,21.90
2022-12-05T05:16:18.105Z,26.70
2022-12-05T05:18:46.996Z,25.75
2022-12-05T05:21:22.808Z,19.77
2022-12-05T05:23:51.443Z,20.52
2022-12-05T05:26:20.316Z,20.60
2022-12-05T05:28:49.422Z,22.58
2022-12-05T05:31:18.404Z,23.60
2022-12-05T05:33:49.888Z,23.52
2022-12-05T05:36:18.365Z,25.23
2022-12-05T05:38:50.290Z,23.80
2022-12-05T05:41:20.221Z,26.10
2022-12-05T05:43:49.477Z,24.23
2022-12-05T05:46:21.337Z,28.73
2022-12-05T05:48:50.451Z,23.70
2022-12-05T05:51:19.806Z,20.67
2022-12-05T05:53:49.785Z,23.83
2022-12-05T05:56:21.805Z,27.17
2022-12-05T05:58:55.989Z,23.63
2022-12-05T06:01:24.380Z,21.15
2022-12-05T06:03:53.193Z,21.35
2022-12-05T06:06:22.779Z,25.80
2022-12-05T06:08:52.301Z,22.77
2022-12-05T06:11:25.742Z,23.45
2022-12-05T06:13:55.469Z,23.35
2022-12-05T06:16:23.661Z,26.73
2022-12-05T06:18:53.246Z,22.52
2022-12-05T06:21:22.516Z,26.98
2022-12-05T06:23:53.068Z,22.95
2022-12-05T06:26:22.709Z,27.70
2022-12-05T06:28:51.632Z,25.52
2022-12-05T06:31:22.657Z,22.20
2022-12-05T06:33:50.753Z,19.83
2022-12-05T06:36:20.701Z,20.17
2022-12-05T06:38:49.394Z,19.23
2022-12-05T06:41:20.956Z,24.35
2022-12-05T06:43:49.213Z,21.25
2022-12-05T06:46:17.396Z,17.35
2022-12-05T06:48:45.539Z,19.38
2022-12-05T06:51:15.515Z,22.65
2022-12-05T06:53:43.983Z,20.95
2022-12-05T06:56:15.243Z,24.25
2022-12-05T06:58:45.997Z,28.45
2022-12-05T07:01:32.755Z,23.33
2022-12-05T07:04:01.355Z,22.08
2022-12-05T07:06:30.051Z,23.70
2022-12-05T07:08:58.301Z,24.92
2022-12-05T07:11:27.087Z,21.35
2022-12-05T07:13:56.477Z,21.98
2022-12-05T07:16:25.153Z,22.50
2022-12-05T07:18:53.410Z,24.23
2022-12-05T07:21:21.995Z,23.08
2022-12-05T07:23:51.233Z,27.98
2022-12-05T07:26:21.969Z,23.52
2022-12-05T07:28:51.442Z,20.58
2022-12-05T07:31:23.119Z,23.23
2022-12-05T07:33:51.678Z,25.70
2022-12-05T07:36:22.477Z,20.50
2022-12-05T07:38:55.551Z,23.80
2022-12-05T07:41:25.979Z,23.15
2022-12-05T07:43:56.136Z,28.40
2022-12-05T07:46:26.909Z,19.83
2022-12-05T07:48:55.856Z,27.25
2022-12-05T07:51:24.098Z,25.48
2022-12-05T07:53:52.359Z,21.15
2022-12-05T07:56:21.668Z,20.88
2022-12-05T07:58:51.367Z,21.83
2022-12-05T08:01:21.509Z,19.50
2022-12-05T08:03:51.895Z,22.83
2022-12-05T08:06:21.896Z,19.55
2022-12-05T08:08:51.239Z,24.45
2022-12-05T08:11:21.563Z,21.65
2022-12-05T08:13:50.546Z,20.90
2022-12-05T08:16:21.309Z,21.38
2022-12-05T08:18:54.871Z,20.08
2022-12-05T08:21:25.240Z,20.80
2022-12-05T08:23:53.942Z,30.20
2022-12-05T08:26:24.663Z,21.88
2022-12-05T08:28:54.493Z,23.27
2022-12-05T08:31:24.450Z,21.48
2022-12-05T08:33:59.018Z,21.52
2022-12-05T08:36:28.709Z,21.27
2022-12-05T08:38:58.145Z,18.38
2022-12-05T08:41:28.788Z,27.77
2022-12-05T08:43:58.344Z,22.38
2022-12-05T08:46:26.976Z,19.17
2022-12-05T08:48:56.720Z,19.75
2022-12-05T08:51:24.818Z,23.90
2022-12-05T08:53:53.676Z,21.10
2022-12-05T08:56:26.846Z,19.85
2022-12-05T08:59:02.920Z,17.70
2022-12-05T09:01:34.551Z,22.17
2022-12-05T09:04:05.576Z,20.27
2022-12-05T09:06:35.703Z,23.48
2022-12-05T09:09:06.526Z,19.10
2022-12-05T09:11:38.042Z,21.50
2022-12-05T09:14:06.417Z,20.73
2022-12-05T09:16:38.545Z,19.45
2022-12-05T09:19:13.409Z,20.58
2022-12-05T09:21:42.132Z,23.23
2022-12-05T09:24:11.979Z,19.90
2022-12-05T09:26:41.096Z,19.67
2022-12-05T09:29:15.746Z,22.45
2022-12-05T09:31:45.946Z,22.02
2022-12-05T09:34:18.145Z,22.10
2022-12-05T09:36:55.706Z,18.88
2022-12-05T09:39:29.866Z,19.45
2022-12-05T09:42:18.424Z,23.10
2022-12-05T09:44:57.590Z,22.98
2022-12-05T09:47:35.624Z,22.02
2022-12-05T09:50:15.501Z,20.85
2022-12-05T09:52:53.111Z,23.73
2022-12-05T09:55:22.226Z,24.83
2022-12-05T09:57:53.933Z,24.48
2022-12-05T10:00:22.383Z,25.73
2022-12-05T10:03:02.524Z,20.10
2022-12-05T10:05:41.881Z,26.45
2022-12-05T10:08:19.428Z,23.85
2022-12-05T10:11:00.334Z,28.17
2022-12-05T10:13:46.463Z,29.52
2022-12-05T10:16:20.895Z,23.48
2022-12-05T10:18:56.424Z,25.75
2022-12-05T10:21:33.872Z,20.42
2022-12-05T10:24:04.264Z,17.55
2022-12-05T10:26:37.141Z,17.20
2022-12-05T10:29:19.168Z,20.35
2022-12-05T10:31:50.205Z,19.95
2022-12-05T10:34:29.688Z,20.33
2022-12-05T10:37:09.399Z,14.23
2022-12-05T10:39:38.356Z,15.57
2022-12-05T10:42:08.729Z,16.40
2022-12-05T10:44:37.830Z,20.40
2022-12-05T10:47:06.464Z,14.95
2022-12-05T10:49:35.671Z,15.40
2022-12-05T10:52:05.702Z,15.35
2022-12-05T10:54:43.880Z,16.33
2022-12-05T10:57:23.862Z,15.23
2022-12-05T10:59:52.647Z,15.25
2022-12-05T11:02:26.064Z,12.63
2022-12-05T11:04:55.345Z,17.25
2022-12-05T11:07:31.744Z,15.18
2022-12-05T11:10:02.215Z,12.93
2022-12-05T11:12:37.688Z,14.98
2022-12-05T11:15:22.613Z,15.77
2022-12-05T11:17:51.432Z,15.48
2022-12-05T11:20:38.877Z,12.35
2022-12-05T11:23:29.716Z,14.30
2022-12-05T11:25:59.511Z,13.70
2022-12-05T11:28:36.982Z,12.38
2022-12-05T11:31:08.931Z,14.77
2022-12-05T11:33:38.120Z,12.00
2022-12-05T11:36:14.541Z,14.38
2022-12-05T11:38:44.781Z,11.55
2022-12-05T11:41:37.464Z,10.23
2022-12-05T11:44:28.373Z,10.57
2022-12-05T11:47:10.769Z,10.40
2022-12-05T11:49:56.558Z,10.40
2022-12-05T11:52:40.577Z,10.00
2022-12-05T11:55:17.007Z,13.82
2022-12-05T11:58:00.541Z,12.77
2022-12-05T12:00:38.179Z,13.52
2022-12-05T12:03:22.796Z,10.07
2022-12-05T12:06:02.472Z,8.93
2022-12-05T12:08:33.939Z,14.95
2022-12-05T12:11:11.748Z,17.67
2022-12-05T12:13:51.740Z,13.20
2022-12-05T12:16:27.964Z,14.45
2022-12-05T12:19:26.238Z,15.70
2022-12-05T12:22:20.818Z,11.15
2022-12-05T12:25:06.161Z,15.65
2022-12-05T12:27:52.232Z,13.43
2022-12-05T12:30:23.477Z,12.48
2022-12-05T12:33:04.759Z,14.48
2022-12-05T12:35:39.377Z,9.13
2022-12-05T12:38:22.223Z,13.43
2022-12-05T12:40:54.326Z,13.20
2022-12-05T12:43:54.721Z,13.75
2022-12-05T12:46:37.390Z,14.70
2022-12-05T12:49:29.689Z,13.65
2022-12-05T12:52:02.638Z,15.13
2022-12-05T12:55:09.076Z,15.07
2022-12-05T12:57:56.560Z,14.25
2022-12-05T13:00:41.007Z,17.15
2022-12-05T13:03:15.623Z,15.07
2022-12-05T13:05:47.816Z,13.85
2022-12-05T13:08:25.233Z,16.08
2022-12-05T13:10:54.829Z,16.85
2022-12-05T13:13:28.027Z,15.00
2022-12-05T13:16:01.664Z,17.42
2022-12-05T13:18:30.164Z,13.48
2022-12-05T13:21:01.068Z,15.98
2022-12-05T13:23:32.131Z,16.02
2022-12-05T13:26:02.513Z,22.90
2022-12-05T13:28:33.296Z,17.75
2022-12-05T13:31:05.899Z,19.83
2022-12-05T13:33:37.038Z,18.17
2022-12-05T13:36:26.411Z,18.05
2022-12-05T13:39:17.595Z,16.98
2022-12-05T13:42:06.190Z,14.70
2022-12-05T13:44:39.578Z,17.48
2022-12-05T13:47:24.338Z,16.85
2022-12-05T13:49:55.625Z,18.38
2022-12-05T13:52:28.233Z,18.73
2022-12-05T13:55:01.724Z,17.73
2022-12-05T13:57:51.771Z,15.25
2022-12-05T14:00:28.943Z,20.02
2022-12-05T14:03:03.415Z,16.42
2022-12-05T14:05:54.486Z,22.58
2022-12-05T14:08:54.370Z,18.40
2022-12-05T14:11:22.725Z,16.15
2022-12-05T14:13:51.174Z,18.35
2022-12-05T14:16:50.796Z,19.60
2022-12-05T14:19:51.681Z,20.40
2022-12-05T14:25:25.566Z,22.42
2022-12-05T14:28:01.406Z,16.85
2022-12-05T14:30:42.219Z,22.33
2022-12-05T14:33:15.958Z,19.25
2022-12-05T14:35:49.139Z,17.60
2022-12-05T14:38:27.661Z,18.40
2022-12-05T14:41:06.503Z,17.98
2022-12-05T14:43:36.026Z,17.42
2022-12-05T14:46:08.026Z,18.80
2022-12-05T14:48:47.097Z,20.42
2022-12-05T14:51:51.675Z,19.65
2022-12-05T14:54:21.674Z,17.00
2022-12-05T14:56:54.621Z,12.43
2022-12-05T14:59:29.046Z,15.52
2022-12-05T15:02:00.998Z,18.27
2022-12-05T15:04:39.861Z,20.63
2022-12-05T15:07:11.671Z,18.17
2022-12-05T15:09:51.562Z,17.98
2022-12-05T15:12:24.776Z,18.75
2022-12-05T15:15:02.525Z,23.58
2022-12-05T15:17:38.274Z,20.02
2022-12-05T15:20:15.407Z,17.35
2022-12-05T15:22:43.856Z,18.80
2022-12-05T15:25:36.843Z,22.80
2022-12-05T15:28:18.830Z,19.98
2022-12-05T15:30:56.895Z,20.83
2022-12-05T15:33:27.026Z,21.13
2022-12-05T15:35:56.681Z,18.40
2022-12-05T15:38:29.831Z,20.52
2022-12-05T15:40:58.657Z,18.75
2022-12-05T15:43:33.175Z,14.98
2022-12-05T15:46:24.017Z,22.90
2022-12-05T15:48:53.165Z,20.83
2022-12-05T15:51:24.845Z,18.48
2022-12-05T15:53:57.756Z,19.90
2022-12-05T15:56:31.974Z,18.58
2022-12-05T15:59:06.935Z,18.48
2022-12-05T16:01:42.291Z,16.90
2022-12-05T16:04:18.203Z,17.40
2022-12-05T16:06:50.521Z,17.45
2022-12-05T16:09:21.276Z,21.98
2022-12-05T16:11:55.002Z,18.80
2022-12-05T16:17:17.286Z,20.20
2022-12-05T16:19:46.040Z,21.45
2022-12-05T16:22:24.871Z,22.25
2022-12-05T16:25:01.032Z,20.13
2022-12-05T16:27:31.269Z,20.52
2022-12-05T16:30:18.094Z,21.10
2022-12-05T16:32:49.159Z,22.77
2022-12-05T16:35:45.597Z,26.17
2022-12-05T16:38:15.926Z,24.95
2022-12-05T16:40:54.124Z,20.75
2022-12-05T16:43:27.195Z,18.58
2022-12-05T16:45:59.850Z,21.20
2022-12-05T16:48:29.943Z,22.70
2022-12-05T16:51:19.655Z,25.50
2022-12-05T16:53:51.073Z,21.33
2022-12-05T16:56:23.292Z,25.80
2022-12-05T16:58:52.879Z,24.25
2022-12-05T17:01:24.740Z,20.02
2022-12-05T17:03:53.947Z,25.63
2022-12-05T17:06:24.297Z,25.45
2022-12-05T17:08:52.960Z,20.23
2022-12-05T17:11:24.389Z,24.73
2022-12-05T17:13:53.297Z,25.35
2022-12-05T17:16:23.316Z,21.33
2022-12-05T17:18:51.679Z,25.30
2022-12-05T17:21:22.329Z,23.65
2022-12-05T17:23:51.680Z,23.90
2022-12-05T17:26:21.673Z,24.30
2022-12-05T17:28:50.809Z,20.77
2022-12-05T17:31:21.834Z,26.27
2022-12-05T17:33:53.083Z,19.38
2022-12-05T17:36:21.971Z,24.88
2022-12-05T17:38:50.378Z,22.55
2022-12-05T17:41:20.668Z,30.45
2022-12-05T17:43:49.052Z,34.40
2022-12-05T17:46:19.962Z,23.30
2022-12-05T17:48:48.900Z,24.30
2022-12-05T17:51:19.248Z,24.40
2022-12-05T17:53:47.849Z,31.35
2022-12-05T17:56:16.710Z,30.45
2022-12-05T17:58:45.027Z,23.77
2022-12-05T18:01:16.490Z,21.23
2022-12-05T18:03:44.966Z,25.30
2022-12-05T18:06:13.352Z,22.55
2022-12-05T18:08:45.020Z,21.40
2022-12-05T18:11:15.344Z,23.33
2022-12-05T18:13:43.975Z,24.95
2022-12-05T18:16:12.461Z,27.48
2022-12-05T18:18:41.108Z,30.25
2022-12-05T18:21:11.219Z,26.75
2022-12-05T18:23:40.813Z,24.50
2022-12-05T18:26:11.668Z,21.55
2022-12-05T18:28:40.708Z,22.05
2022-12-05T18:31:11.940Z,20.40
2022-12-05T18:33:40.834Z,21.30
2022-12-05T18:36:11.533Z,25.83
2022-12-05T18:38:40.815Z,26.08
2022-12-05T18:41:11.024Z,30.33
2022-12-05T18:43:40.175Z,26.90
2022-12-05T18:46:08.554Z,23.27
2022-12-05T18:48:40.088Z,30.83
2022-12-05T18:51:12.063Z,32.35
2022-12-05T18:53:40.980Z,28.13
2022-12-05T18:56:22.326Z,22.50
2022-12-05T18:58:54.997Z,27.42
2022-12-05T19:01:23.546Z,25.73
2022-12-05T19:03:52.188Z,24.35
2022-12-05T19:06:23.104Z,27.85
2022-12-05T19:08:55.021Z,23.65
2022-12-05T19:11:26.491Z,26.05
2022-12-05T19:13:56.404Z,26.30
2022-12-05T19:16:25.278Z,30.38
2022-12-05T19:18:56.021Z,28.40
2022-12-05T19:21:24.911Z,23.17
2022-12-05T19:23:53.613Z,26.15
2022-12-05T19:26:22.567Z,28.02
2022-12-05T19:28:52.386Z,25.15
2022-12-05T19:31:22.500Z,28.55
2022-12-05T19:33:52.530Z,28.98
2022-12-05T19:36:22.230Z,25.95
2022-12-05T19:38:52.680Z,29.75
2022-12-05T19:41:24.000Z,26.10
2022-12-05T19:43:54.556Z,29.52
2022-12-05T19:46:25.128Z,30.20
2022-12-05T19:48:54.323Z,27.23
2022-12-05T19:51:22.640Z,28.10
2022-12-05T19:53:50.948Z,26.65
2022-12-05T19:56:22.232Z,30.67
2022-12-05T19:58:54.442Z,32.38
2022-12-05T20:01:25.668Z,30.02
2022-12-05T20:03:55.810Z,29.67
2022-12-05T20:06:25.193Z,26.95
2022-12-05T20:08:54.600Z,28.15
2022-12-05T20:11:25.848Z,27.02
2022-12-05T20:13:57.647Z,30.17
2022-12-05T20:16:27.826Z,27.30
2022-12-05T20:18:58.207Z,28.40
2022-12-05T20:21:27.778Z,32.42
2022-12-05T20:23:56.554Z,30.70
2022-12-05T20:26:26.664Z,25.83
2022-12-05T20:28:56.423Z,25.63
2022-12-05T20:31:26.797Z,31.77
2022-12-05T20:33:55.707Z,27.17
2022-12-05T20:36:26.144Z,30.50
2022-12-05T20:38:59.104Z,32.38
2022-12-05T20:41:28.442Z,25.48
2022-12-05T20:43:59.777Z,31.67
2022-12-05T20:46:30.021Z,28.40
2022-12-05T20:48:58.636Z,26.92
2022-12-05T20:51:29.273Z,32.83
2022-12-05T20:53:59.806Z,32.35
2022-12-05T20:56:29.451Z,27.60
2022-12-05T20:59:01.090Z,27.70
2022-12-05T21:01:31.202Z,29.92
2022-12-05T21:04:00.115Z,28.58
2022-12-05T21:06:30.809Z,37.53
2022-12-05T21:09:00.306Z,28.10
2022-12-05T21:11:30.435Z,31.83
2022-12-05T21:14:01.937Z,23.95
2022-12-05T21:16:30.545Z,15.25
2022-12-05T21:19:00.920Z,16.60
2022-12-05T21:21:30.030Z,14.07
2022-12-05T21:23:59.999Z,9.98
2022-12-05T21:26:31.243Z,13.85
2022-12-05T21:29:02.282Z,10.63
2022-12-05T21:31:32.959Z,14.23
2022-12-05T21:34:03.452Z,12.38
2022-12-05T21:36:34.181Z,11.45
2022-12-05T21:39:02.761Z,12.60
2022-12-05T21:41:31.028Z,10.35
2022-12-05T21:44:01.563Z,11.25
2022-12-05T21:46:29.813Z,16.67
2022-12-05T21:49:00.370Z,11.00
2022-12-05T21:51:29.040Z,10.77
2022-12-05T21:53:57.756Z,13.45
2022-12-05T21:56:26.414Z,10.82
2022-12-05T21:58:54.757Z,11.70
2022-12-05T22:01:27.874Z,10.10
2022-12-05T22:03:59.385Z,13.55
2022-12-05T22:06:28.337Z,11.02
2022-12-05T22:08:57.536Z,11.50
2022-12-05T22:11:26.411Z,11.70
2022-12-05T22:13:54.746Z,15.40
2022-12-05T22:16:30.873Z,10.70
2022-12-05T22:19:01.107Z,11.68
2022-12-05T22:21:29.895Z,10.90
2022-12-05T22:23:58.405Z,10.30
2022-12-05T22:26:27.521Z,16.50
2022-12-05T22:28:57.181Z,14.95
2022-12-05T22:31:26.836Z,12.20
2022-12-05T22:33:55.120Z,13.98
2022-12-05T22:36:24.267Z,13.48
2022-12-05T22:38:52.707Z,14.48
2022-12-05T22:41:22.851Z,13.85
2022-12-05T22:43:55.695Z,14.20
2022-12-05T22:46:24.195Z,15.25
2022-12-05T22:48:54.443Z,16.08
2022-12-05T22:51:23.491Z,15.40
2022-12-05T22:53:52.331Z,15.40
2022-12-05T22:56:22.416Z,11.90
2022-12-05T22:58:54.100Z,11.63
2022-12-05T23:01:24.627Z,13.80
2022-12-05T23:03:57.681Z,16.77
2022-12-05T23:06:26.711Z,15.02
2022-12-05T23:08:55.860Z,13.23
2022-12-05T23:11:24.861Z,17.05
2022-12-05T23:14:01.474Z,15.63
2022-12-05T23:16:34.387Z,14.45
2022-12-05T23:19:06.685Z,17.08
2022-12-05T23:21:37.330Z,14.73
2022-12-05T23:24:08.664Z,20.52
2022-12-05T23:26:39.943Z,15.32
2022-12-05T23:29:08.510Z,17.05
2022-12-05T23:31:36.877Z,15.75
2022-12-05T23:34:07.104Z,16.83
2022-12-05T23:36:35.977Z,14.23
2022-12-05T23:39:04.782Z,15.13
2022-12-05T23:41:33.166Z,12.48
2022-12-05T23:44:01.522Z,19.10
2022-12-05T23:46:30.822Z,15.13
2022-12-05T23:48:59.318Z,14.80
2022-12-05T23:51:30.337Z,15.15
2022-12-05T23:54:00.938Z,13.18
2022-12-05T23:56:31.167Z,16.58
2022-12-05T23:58:59.977Z,15.27
